createdAt,value
2022-09-14T00:01:31.601Z,15.20
2022-09-14T00:05:37.586Z,15.16
2022-09-14T00:09:39.762Z,15.16
2022-09-14T00:13:46.844Z,15.24
2022-09-14T00:17:49.011Z,15.26
2022-09-14T00:21:59.350Z,15.23
2022-09-14T00:26:07.289Z,15.22
2022-09-14T00:30:10.325Z,15.08
2022-09-14T00:34:16.843Z,14.91
2022-09-14T00:38:18.986Z,14.82
2022-09-14T00:42:21.245Z,14.80
2022-09-14T00:46:25.607Z,14.69
2022-09-14T00:50:29.044Z,14.67
2022-09-14T00:54:31.945Z,14.42
2022-09-14T00:58:34.005Z,14.32
2022-09-14T01:02:36.842Z,14.19
2022-09-14T01:07:07.162Z,13.89
2022-09-14T01:11:31.365Z,13.81
2022-09-14T01:16:05.713Z,13.56
2022-09-14T01:20:14.416Z,13.63
2022-09-14T01:24:36.197Z,13.80
2022-09-14T01:28:51.121Z,13.99
2022-09-14T01:33:12.278Z,14.04
2022-09-14T01:37:39.262Z,14.13
2022-09-14T01:41:43.988Z,14.21
2022-09-14T01:46:10.632Z,14.16
2022-09-14T01:50:39.005Z,14.15
2022-09-14T01:54:46.310Z,13.74
2022-09-14T01:58:58.138Z,13.71
2022-09-14T02:03:43.259Z,13.69
2022-09-14T02:07:45.791Z,13.66
2022-09-14T02:12:08.377Z,13.68
2022-09-14T02:16:10.822Z,13.61
2022-09-14T02:20:29.043Z,13.69
2022-09-14T02:24:31.442Z,13.91
2022-09-14T02:28:33.764Z,13.97
2022-09-14T02:32:35.638Z,13.99
2022-09-14T02:37:00.838Z,14.13
2022-09-14T02:41:26.808Z,14.11
2022-09-14T02:45:51.850Z,14.22
2022-09-14T02:50:30.139Z,14.21
2022-09-14T02:55:04.632Z,14.23
2022-09-14T02:59:06.685Z,14.29
2022-09-14T03:03:11.243Z,14.30
2022-09-14T03:07:13.262Z,14.35
2022-09-14T03:11:16.078Z,14.41
2022-09-14T03:15:18.198Z,14.49
2022-09-14T03:19:20.570Z,14.46
2022-09-14T03:23:22.556Z,14.44
2022-09-14T03:27:24.881Z,14.52
2022-09-14T03:31:27.679Z,14.43
2022-09-14T03:35:31.610Z,14.54
2022-09-14T03:39:33.777Z,14.50
2022-09-14T03:43:36.145Z,14.32
2022-09-14T03:47:39.059Z,14.35
2022-09-14T03:51:41.274Z,14.41
2022-09-14T03:55:43.186Z,14.38
2022-09-14T03:59:45.403Z,14.25
2022-09-14T04:03:47.885Z,14.15
2022-09-14T04:07:50.187Z,14.10
2022-09-14T04:11:52.322Z,14.12
2022-09-14T04:16:01.475Z,14.04
2022-09-14T04:20:04.209Z,14.13
2022-09-14T04:24:15.892Z,14.07
2022-09-14T04:28:20.652Z,14.15
2022-09-14T04:32:23.322Z,14.18
2022-09-14T04:36:28.590Z,14.16
2022-09-14T04:40:31.317Z,14.14
2022-09-14T04:44:33.497Z,14.17
2022-09-14T04:48:36.373Z,14.17
2022-09-14T04:52:38.730Z,14.35
2022-09-14T04:56:41.600Z,14.39
2022-09-14T05:00:43.634Z,14.48
2022-09-14T05:04:45.954Z,14.57
2022-09-14T05:08:49.311Z,14.54
2022-09-14T05:12:51.664Z,14.69
2022-09-14T05:16:53.652Z,14.62
2022-09-14T05:20:55.798Z,14.67
2022-09-14T05:24:57.818Z,14.84
2022-09-14T05:29:02.138Z,14.89
2022-09-14T05:33:04.055Z,14.93
2022-09-14T05:37:06.485Z,14.89
2022-09-14T05:41:12.317Z,14.90
2022-09-14T05:45:14.488Z,14.94
2022-09-14T05:49:16.482Z,15.13
2022-09-14T05:53:18.595Z,15.31
2022-09-14T05:57:20.587Z,15.32
2022-09-14T06:01:28.405Z,15.17
2022-09-14T06:05:31.726Z,15.24
2022-09-14T06:09:34.184Z,15.34
2022-09-14T06:13:37.258Z,15.53
2022-09-14T06:17:39.796Z,15.57
2022-09-14T06:21:43.214Z,15.69
2022-09-14T06:25:45.438Z,15.55
2022-09-14T06:29:52.215Z,15.46
2022-09-14T06:33:54.522Z,15.49
2022-09-14T06:37:56.498Z,15.52
2022-09-14T06:41:58.798Z,15.84
2022-09-14T06:46:07.562Z,15.61
2022-09-14T06:50:09.976Z,15.48
2022-09-14T06:54:14.125Z,15.66
2022-09-14T06:58:16.644Z,15.66
2022-09-14T07:02:18.698Z,15.54
2022-09-14T07:06:24.214Z,15.77
2022-09-14T07:10:28.355Z,15.60
2022-09-14T07:14:32.437Z,15.52
2022-09-14T07:18:35.968Z,15.52
2022-09-14T07:22:38.286Z,15.65
2022-09-14T07:26:44.884Z,15.64
2022-09-14T07:30:48.618Z,15.70
2022-09-14T07:34:50.663Z,15.57
2022-09-14T07:38:53.868Z,15.70
2022-09-14T07:42:57.768Z,15.86
2022-09-14T07:47:00.405Z,16.35
2022-09-14T07:51:07.025Z,16.33
2022-09-14T07:55:12.194Z,16.23
2022-09-14T07:59:35.017Z,16.47
2022-09-14T08:03:38.844Z,16.45
2022-09-14T08:07:40.724Z,16.55
2022-09-14T08:11:42.845Z,16.75
2022-09-14T08:15:45.563Z,17.06
2022-09-14T08:19:48.334Z,17.49
2022-09-14T08:23:50.468Z,17.30
2022-09-14T08:27:52.618Z,17.64
2022-09-14T08:31:54.765Z,17.49
2022-09-14T08:35:58.331Z,17.58
2022-09-14T08:40:00.551Z,17.70
2022-09-14T08:44:10.975Z,17.88
2022-09-14T08:48:49.319Z,17.95
2022-09-14T08:52:53.419Z,17.82
2022-09-14T08:57:13.024Z,17.96
2022-09-14T09:01:20.537Z,17.48
2022-09-14T09:05:44.195Z,17.62
2022-09-14T09:09:52.412Z,17.32
2022-09-14T09:13:56.386Z,17.10
2022-09-14T09:18:21.629Z,17.50
2022-09-14T09:22:26.607Z,17.99
2022-09-14T09:26:31.858Z,17.80
2022-09-14T09:30:33.827Z,18.22
2022-09-14T09:34:36.640Z,18.47
2022-09-14T09:38:47.255Z,18.19
2022-09-14T09:43:29.007Z,18.67
2022-09-14T09:47:42.356Z,18.86
2022-09-14T09:51:44.854Z,18.57
2022-09-14T09:55:51.351Z,18.40
2022-09-14T10:00:20.160Z,17.74
2022-09-14T10:04:28.894Z,18.09
2022-09-14T10:08:35.217Z,17.87
2022-09-14T10:12:39.338Z,17.83
2022-09-14T10:16:42.184Z,17.71
2022-09-14T10:20:53.250Z,17.70
2022-09-14T10:24:56.982Z,17.56
2022-09-14T10:29:25.550Z,18.14
2022-09-14T10:33:28.861Z,18.44
2022-09-14T10:37:42.714Z,18.63
2022-09-14T10:41:48.235Z,18.71
2022-09-14T10:45:53.078Z,18.92
2022-09-14T10:50:25.390Z,18.88
2022-09-14T10:55:00.744Z,19.48
2022-09-14T10:59:29.636Z,19.34
2022-09-14T11:03:56.055Z,19.74
2022-09-14T11:08:11.759Z,19.96
2022-09-14T11:12:31.225Z,19.95
2022-09-14T11:17:07.359Z,19.68
2022-09-14T11:21:32.064Z,18.81
2022-09-14T11:26:03.758Z,18.74
2022-09-14T11:30:20.596Z,18.38
2022-09-14T11:34:22.897Z,18.69
2022-09-14T11:38:29.808Z,19.11
2022-09-14T11:42:50.778Z,19.72
2022-09-14T11:47:09.946Z,19.84
2022-09-14T11:51:17.585Z,19.88
2022-09-14T11:55:19.978Z,19.77
2022-09-14T11:59:50.461Z,19.26
2022-09-14T12:03:57.147Z,19.33
2022-09-14T12:08:02.285Z,19.13
2022-09-14T12:12:08.139Z,19.05
2022-09-14T12:16:10.563Z,18.96
2022-09-14T12:20:37.489Z,19.22
2022-09-14T12:24:39.926Z,19.37
2022-09-14T12:28:50.587Z,19.52
2022-09-14T12:32:53.598Z,19.86
2022-09-14T12:36:59.189Z,20.26
2022-09-14T12:41:11.204Z,20.06
2022-09-14T12:45:49.765Z,19.82
2022-09-14T12:50:05.286Z,20.13
2022-09-14T12:54:18.423Z,19.90
2022-09-14T12:58:46.716Z,19.67
2022-09-14T13:03:00.135Z,19.99
2022-09-14T13:07:06.398Z,20.33
2022-09-14T13:11:09.526Z,20.30
2022-09-14T13:15:25.709Z,20.47
2022-09-14T13:19:30.521Z,20.57
2022-09-14T13:23:39.001Z,20.53
2022-09-14T13:27:41.335Z,20.59
2022-09-14T13:31:45.395Z,20.53
2022-09-14T13:36:02.858Z,20.62
2022-09-14T13:40:06.938Z,20.32
2022-09-14T13:44:09.087Z,19.87
2022-09-14T13:48:14.959Z,19.71
2022-09-14T13:52:22.719Z,19.66
2022-09-14T13:56:33.261Z,19.47
2022-09-14T14:00:58.722Z,19.22
2022-09-14T14:05:01.561Z,19.00
2022-09-14T14:09:11.330Z,18.90
2022-09-14T14:13:13.558Z,19.03
2022-09-14T14:17:37.025Z,18.92
2022-09-14T14:21:39.418Z,19.00
2022-09-14T14:25:46.183Z,18.81
2022-09-14T14:29:52.421Z,18.90
2022-09-14T14:33:56.184Z,19.09
2022-09-14T14:37:58.850Z,19.38
2022-09-14T14:42:02.408Z,19.69
2022-09-14T14:46:07.022Z,19.70
2022-09-14T14:50:20.876Z,19.76
2022-09-14T14:54:23.852Z,19.66
2022-09-14T14:58:26.074Z,19.26
2022-09-14T15:02:28.315Z,18.99
2022-09-14T15:06:30.290Z,18.88
2022-09-14T15:10:32.684Z,18.65
2022-09-14T15:14:35.065Z,18.63
2022-09-14T15:18:37.225Z,18.64
2022-09-14T15:22:42.496Z,18.62
2022-09-14T15:26:44.877Z,18.62
2022-09-14T15:30:46.848Z,18.68
2022-09-14T15:34:49.101Z,18.57
2022-09-14T15:38:51.059Z,18.39
2022-09-14T15:42:53.716Z,18.32
2022-09-14T15:46:56.558Z,18.08
2022-09-14T15:51:00.799Z,17.98
2022-09-14T15:55:04.980Z,17.83
2022-09-14T15:59:07.791Z,17.83
2022-09-14T16:03:10.392Z,17.73
2022-09-14T16:07:13.201Z,17.51
2022-09-14T16:11:15.190Z,17.48
2022-09-14T16:15:17.612Z,17.36
2022-09-14T16:19:19.622Z,17.19
2022-09-14T16:23:22.190Z,17.24
2022-09-14T16:27:24.535Z,17.05
2022-09-14T16:31:30.275Z,16.88
2022-09-14T16:35:32.487Z,16.80
2022-09-14T16:39:35.196Z,16.75
2022-09-14T16:43:37.375Z,16.53
2022-09-14T16:47:39.966Z,16.56
2022-09-14T16:51:42.265Z,16.49
2022-09-14T16:55:44.406Z,16.36
2022-09-14T16:59:46.887Z,16.22
2022-09-14T17:03:50.963Z,16.00
2022-09-14T17:07:52.949Z,15.82
2022-09-14T17:11:56.523Z,15.57
2022-09-14T17:16:02.471Z,15.51
2022-09-14T17:20:05.429Z,15.41
2022-09-14T17:24:08.298Z,15.13
2022-09-14T17:28:10.650Z,15.09
2022-09-14T17:32:15.081Z,15.16
2022-09-14T17:36:17.330Z,15.13
2022-09-14T17:40:19.339Z,14.98
2022-09-14T17:44:25.831Z,14.98
2022-09-14T17:48:31.315Z,14.99
2022-09-14T17:52:35.397Z,14.79
2022-09-14T17:56:37.480Z,14.80
2022-09-14T18:00:39.727Z,14.75
2022-09-14T18:04:44.317Z,14.80
2022-09-14T18:08:55.263Z,14.67
2022-09-14T18:12:57.302Z,14.50
2022-09-14T18:16:59.983Z,14.33
2022-09-14T18:21:02.633Z,14.19
2022-09-14T18:25:06.704Z,14.17
2022-09-14T18:29:08.664Z,14.32
2022-09-14T18:33:11.106Z,14.13
2022-09-14T18:37:13.548Z,14.30
2022-09-14T18:41:17.281Z,14.16
2022-09-14T18:45:19.443Z,14.05
2022-09-14T18:49:21.875Z,14.25
2022-09-14T18:53:23.954Z,14.03
2022-09-14T18:57:26.767Z,13.99
2022-09-14T19:01:29.048Z,13.99
2022-09-14T19:05:32.010Z,14.09
2022-09-14T19:09:34.315Z,14.12
2022-09-14T19:13:38.093Z,14.03
2022-09-14T19:17:40.395Z,14.14
2022-09-14T19:21:44.036Z,14.16
2022-09-14T19:25:46.154Z,14.00
2022-09-14T19:29:48.422Z,13.87
2022-09-14T19:33:51.282Z,13.82
2022-09-14T19:37:55.058Z,13.51
2022-09-14T19:41:57.316Z,13.70
2022-09-14T19:46:08.072Z,13.67
2022-09-14T19:50:10.483Z,13.55
2022-09-14T19:54:14.475Z,13.74
2022-09-14T19:58:16.501Z,13.58
2022-09-14T20:02:18.851Z,13.56
2022-09-14T20:06:26.064Z,13.64
2022-09-14T20:10:28.336Z,13.57
2022-09-14T20:14:30.614Z,13.51
2022-09-14T20:18:32.831Z,13.54
2022-09-14T20:22:34.816Z,13.50
2022-09-14T20:26:37.062Z,13.56
2022-09-14T20:30:38.990Z,13.58
2022-09-14T20:34:41.405Z,13.47
2022-09-14T20:38:49.667Z,13.48
2022-09-14T20:42:52.411Z,13.55
2022-09-14T20:46:54.532Z,13.54
2022-09-14T20:50:57.817Z,13.49
2022-09-14T20:54:59.884Z,13.59
2022-09-14T20:59:04.674Z,13.48
2022-09-14T21:03:06.782Z,13.50
2022-09-14T21:07:10.979Z,13.46
2022-09-14T21:11:20.147Z,13.43
2022-09-14T21:15:22.708Z,13.49
2022-09-14T21:19:27.670Z,13.38
2022-09-14T21:23:29.898Z,13.44
2022-09-14T21:27:32.220Z,13.59
2022-09-14T21:31:36.602Z,13.80
2022-09-14T21:35:38.615Z,13.90
2022-09-14T21:39:40.809Z,13.92
2022-09-14T21:43:42.999Z,13.92
2022-09-14T21:47:45.170Z,13.82
2022-09-14T21:51:51.337Z,13.88
2022-09-14T21:56:00.899Z,13.82
2022-09-14T22:00:09.205Z,13.84
2022-09-14T22:04:15.256Z,13.89
2022-09-14T22:08:17.225Z,13.84
2022-09-14T22:24:23.104Z,13.70
2022-09-14T22:28:25.984Z,13.79
2022-09-14T22:32:27.897Z,13.82
2022-09-14T22:36:30.242Z,13.93
2022-09-14T22:40:32.451Z,13.95
2022-09-14T22:44:34.658Z,13.93
2022-09-14T22:48:37.326Z,13.80
2022-09-14T22:52:39.664Z,13.71
2022-09-14T22:56:41.822Z,13.68
2022-09-14T23:00:44.885Z,13.79
2022-09-14T23:04:48.698Z,13.80
2022-09-14T23:08:50.910Z,13.69
2022-09-14T23:12:53.113Z,13.58
2022-09-14T23:16:55.366Z,13.56
2022-09-14T23:20:57.325Z,13.53
2022-09-14T23:24:59.485Z,13.60
2022-09-14T23:29:05.140Z,13.62
2022-09-14T23:33:07.361Z,13.62
2022-09-14T23:37:09.378Z,13.56
2022-09-14T23:41:11.720Z,13.51
2022-09-14T23:45:14.685Z,13.37
2022-09-14T23:49:17.320Z,13.42
2022-09-14T23:53:19.225Z,13.49
2022-09-14T23:57:21.784Z,13.58
